Time;durP1;ratioP1;P1;durP2;ratioP2;P2;SDS_P1;SDS_P2;PMS_P1;PMS_P2;Temp;Humidity;BMP_temperature;BMP_pressure;BME280_temperature;BME280_humidity;BME280_pressure;Samples;Min_cycle;Max_cycle;Signal;HPM_P1;HPM_P2
2022/11/08 00:03:29;;;;;;;12.85;4.47;;;12.60;99.90;;;;;;6172558;23;20357;-93
2022/11/08 00:14:10;;;;;;;13.85;3.85;;;12.70;99.90;;;;;;6173415;23;20031;-93
2022/11/08 00:16:36;;;;;;;14.15;4.30;;;12.80;99.90;;;;;;6146897;23;20017;-93
2022/11/08 00:19:02;;;;;;;13.13;4.45;;;12.60;99.90;;;;;;6147695;23;20502;-93
2022/11/08 00:21:27;;;;;;;16.10;4.07;;;12.70;99.90;;;;;;6147433;23;20017;-93
2022/11/08 00:23:53;;;;;;;14.85;3.80;;;12.70;99.90;;;;;;6147899;23;20028;-93
2022/11/08 00:26:18;;;;;;;9.40;3.60;;;12.70;99.90;;;;;;6147444;23;20055;-94
2022/11/08 00:28:44;;;;;;;14.95;3.80;;;12.70;99.90;;;;;;6147214;23;20354;-94
2022/11/08 00:31:10;;;;;;;13.27;4.25;;;12.70;99.90;;;;;;6146456;23;20449;-92
2022/11/08 00:33:38;;;;;;;14.35;4.00;;;12.70;99.90;;;;;;6147437;23;20017;-94
2022/11/08 00:36:04;;;;;;;14.68;4.03;;;12.70;99.90;;;;;;6146094;23;20016;-92
2022/11/08 00:38:30;;;;;;;12.95;3.78;;;12.70;99.90;;;;;;6147877;23;20475;-93
2022/11/08 00:40:55;;;;;;;13.13;4.15;;;12.70;99.90;;;;;;6147529;23;20294;-93
2022/11/08 00:43:21;;;;;;;10.55;4.10;;;12.80;99.90;;;;;;6147239;23;20298;-93
2022/11/08 00:45:47;;;;;;;9.75;3.60;;;12.70;99.90;;;;;;6147674;23;20515;-92
2022/11/08 00:48:12;;;;;;;15.35;3.80;;;12.70;99.90;;;;;;6146016;23;20344;-93
2022/11/08 00:50:39;;;;;;;9.32;3.35;;;12.70;99.90;;;;;;6147887;23;20021;-92
2022/11/08 00:53:05;;;;;;;10.52;3.38;;;12.60;99.90;;;;;;6146580;23;20020;-92
2022/11/08 00:55:30;;;;;;;8.32;3.85;;;12.70;99.90;;;;;;6148491;23;20031;-92
2022/11/08 00:57:56;;;;;;;11.13;3.70;;;12.60;99.90;;;;;;6171551;23;20047;-93
2022/11/08 01:00:22;;;;;;;12.52;4.00;;;12.60;99.90;;;;;;6148057;23;20009;-93
2022/11/08 01:02:47;;;;;;;12.45;3.40;;;12.50;99.90;;;;;;6146182;23;20501;-93
2022/11/08 01:05:13;;;;;;;9.52;3.63;;;12.60;99.90;;;;;;6148850;23;20345;-93
2022/11/08 01:07:39;;;;;;;10.02;3.20;;;12.60;99.90;;;;;;6147555;23;20548;-92
2022/11/08 01:10:05;;;;;;;10.93;3.65;;;12.50;99.90;;;;;;6148730;23;20013;-92
2022/11/08 01:12:31;;;;;;;14.15;3.97;;;12.60;99.90;;;;;;6146662;23;20016;-94
2022/11/08 01:14:56;;;;;;;13.63;3.85;;;12.50;99.90;;;;;;6147791;23;20024;-91
2022/11/08 01:17:22;;;;;;;8.15;3.50;;;12.60;99.90;;;;;;6146418;23;20445;-94
2022/11/08 01:19:48;;;;;;;15.65;3.47;;;12.50;99.90;;;;;;6147434;23;20028;-93
2022/11/08 01:22:13;;;;;;;12.13;3.92;;;12.40;99.90;;;;;;6147441;23;20016;-94
2022/11/08 01:24:39;;;;;;;9.48;3.25;;;12.30;99.90;;;;;;6146662;23;20021;-93
2022/11/08 01:27:05;;;;;;;16.15;3.78;;;12.20;99.90;;;;;;6146783;23;20016;-93
2022/11/08 01:29:31;;;;;;;13.80;4.53;;;12.30;99.90;;;;;;6148339;23;20070;-93
2022/11/08 01:31:57;;;;;;;13.63;3.38;;;12.20;99.90;;;;;;6144813;22;20095;-93
2022/11/08 01:34:22;;;;;;;14.48;3.78;;;12.20;99.90;;;;;;6148745;23;20997;-93
2022/11/08 01:36:48;;;;;;;14.35;3.75;;;12.20;99.90;;;;;;6147592;23;20023;-94
2022/11/08 01:39:15;;;;;;;11.75;3.50;;;12.10;99.90;;;;;;6147929;23;20046;-92
2022/11/08 01:41:41;;;;;;;12.13;4.50;;;12.10;99.90;;;;;;6146605;23;20066;-92
2022/11/08 01:44:15;;;;;;;10.25;3.70;;;12.20;99.90;;;;;;6172541;23;20016;-92
2022/11/08 01:46:45;;;;;;;9.40;3.73;;;12.10;99.90;;;;;;6145693;23;20020;-92
2022/11/08 01:49:35;;;;;;;13.88;3.78;;;12.10;99.90;;;;;;6148365;22;20065;-94
2022/11/08 01:52:26;;;;;;;11.73;3.65;;;12.20;99.90;;;;;;6148547;23;20449;-94
2022/11/08 01:55:10;;;;;;;11.00;3.55;;;12.20;99.90;;;;;;6169993;23;20082;-93
2022/11/08 01:57:57;;;;;;;10.50;3.67;;;12.20;99.90;;;;;;6172964;23;20047;-93
2022/11/08 02:00:23;;;;;;;10.82;3.25;;;12.20;99.90;;;;;;6174802;23;20092;-93
2022/11/08 02:03:01;;;;;;;13.75;3.60;;;12.10;99.90;;;;;;6171599;23;20044;-93
2022/11/08 02:05:29;;;;;;;14.35;3.50;;;12.20;99.90;;;;;;6173584;23;20077;-93
2022/11/08 02:08:30;;;;;;;13.30;3.40;;;12.10;99.90;;;;;;6173596;23;20414;-93
2022/11/08 02:10:57;;;;;;;12.43;3.63;;;12.00;99.90;;;;;;6173287;22;20017;-93
2022/11/08 02:13:24;;;;;;;12.00;3.42;;;12.10;99.90;;;;;;6174075;23;20017;-92
2022/11/08 02:15:50;;;;;;;13.68;3.92;;;12.10;99.90;;;;;;6173169;23;20058;-93
2022/11/08 02:18:18;;;;;;;14.65;3.80;;;12.00;99.90;;;;;;6173122;23;20008;-93
2022/11/08 02:21:06;;;;;;;14.20;3.47;;;12.00;99.90;;;;;;6198435;23;20008;-94
2022/11/08 02:23:55;;;;;;;9.13;3.67;;;12.10;99.90;;;;;;6173290;23;20047;-93
2022/11/08 02:26:31;;;;;;;8.85;3.30;;;12.00;99.90;;;;;;6173236;23;20009;-94
2022/11/08 02:28:56;;;;;;;14.68;3.38;;;11.90;99.90;;;;;;6173375;23;20013;-93
2022/11/08 02:31:22;;;;;;;10.75;3.45;;;11.80;99.90;;;;;;6172319;23;20016;-93
2022/11/08 02:33:48;;;;;;;11.43;3.72;;;11.90;99.90;;;;;;6172339;23;20012;-93
2022/11/08 02:36:20;;;;;;;13.13;3.35;;;11.90;99.90;;;;;;6173571;23;20047;-92
2022/11/08 02:38:52;;;;;;;10.25;3.20;;;11.70;99.90;;;;;;6172919;23;20227;-93
2022/11/08 02:41:19;;;;;;;13.57;3.85;;;11.70;99.90;;;;;;6198419;23;20016;-92
2022/11/08 02:43:44;;;;;;;8.65;3.35;;;11.80;99.90;;;;;;6173976;23;20027;-93
2022/11/08 02:46:10;;;;;;;9.13;3.30;;;11.70;99.90;;;;;;6197894;23;20013;-93
2022/11/08 02:48:36;;;;;;;12.38;3.83;;;11.70;99.90;;;;;;6173438;23;20082;-93
2022/11/08 02:51:01;;;;;;;9.50;3.47;;;11.60;99.90;;;;;;6173339;23;20322;-93
2022/11/08 02:53:27;;;;;;;11.32;3.63;;;11.60;99.90;;;;;;6172696;23;20017;-93
2022/11/08 02:55:53;;;;;;;12.57;3.45;;;11.50;99.90;;;;;;6173052;23;20249;-92
2022/11/08 02:58:18;;;;;;;11.45;3.45;;;11.60;99.90;;;;;;6173205;23;20085;-92
2022/11/08 03:00:44;;;;;;;10.73;3.67;;;11.60;99.90;;;;;;6173500;23;20012;-92
2022/11/08 03:03:10;;;;;;;9.60;3.58;;;11.40;99.90;;;;;;6172412;23;20445;-93
2022/11/08 03:05:38;;;;;;;13.25;3.42;;;11.40;99.90;;;;;;6173475;23;20013;-92
2022/11/08 03:08:04;;;;;;;13.07;3.40;;;11.50;99.90;;;;;;6173069;23;20451;-92
2022/11/08 03:10:30;;;;;;;12.55;3.78;;;11.50;99.90;;;;;;6174862;23;20087;-94
2022/11/08 03:13:00;;;;;;;12.35;4.07;;;11.40;99.90;;;;;;6172395;23;20021;-92
2022/11/08 03:15:27;;;;;;;13.45;3.72;;;11.40;99.90;;;;;;6174250;23;20340;-93
2022/11/08 03:17:54;;;;;;;12.98;3.72;;;11.40;99.90;;;;;;6171177;23;20061;-94
2022/11/08 03:20:19;;;;;;;9.02;4.15;;;11.40;99.90;;;;;;6198485;23;20134;-94
2022/11/08 03:22:45;;;;;;;10.68;3.50;;;11.30;99.90;;;;;;6173206;23;20020;-94
2022/11/08 03:25:11;;;;;;;11.23;3.75;;;11.40;99.90;;;;;;6173328;23;20112;-91
2022/11/08 03:27:37;;;;;;;11.63;3.45;;;11.40;99.90;;;;;;6173278;23;20441;-93
2022/11/08 03:30:04;;;;;;;11.55;3.90;;;11.40;99.90;;;;;;6173860;23;20358;-92
2022/11/08 03:32:29;;;;;;;11.55;3.67;;;11.20;99.90;;;;;;6171862;23;20017;-93
2022/11/08 03:34:55;;;;;;;7.90;3.40;;;11.30;99.90;;;;;;6199487;23;20385;-94
2022/11/08 03:37:22;;;;;;;8.55;3.65;;;11.30;99.90;;;;;;6171897;23;20009;-94
2022/11/08 03:39:47;;;;;;;13.45;3.90;;;11.20;99.90;;;;;;6172566;23;20013;-92
2022/11/08 03:42:13;;;;;;;12.35;3.97;;;11.30;99.90;;;;;;6197260;23;20371;-93
2022/11/08 03:44:38;;;;;;;10.65;3.75;;;11.30;99.90;;;;;;6173534;23;20101;-92
2022/11/08 03:47:04;;;;;;;11.73;3.65;;;11.30;99.90;;;;;;6172340;23;20023;-93
2022/11/08 03:49:30;;;;;;;9.95;3.45;;;11.20;99.90;;;;;;6173167;23;20377;-92
2022/11/08 03:51:55;;;;;;;11.88;3.80;;;11.20;99.90;;;;;;6171819;23;20372;-92
2022/11/08 03:54:21;;;;;;;9.57;3.80;;;11.20;99.90;;;;;;6172941;23;20020;-93
2022/11/08 03:56:47;;;;;;;12.85;3.83;;;11.30;99.90;;;;;;6172119;23;20016;-92
2022/11/08 03:59:15;;;;;;;14.60;4.55;;;11.10;99.90;;;;;;6172731;23;20019;-91
2022/11/08 04:01:41;;;;;;;14.07;3.78;;;11.10;99.90;;;;;;6170636;23;20280;-94
2022/11/08 04:04:07;;;;;;;15.95;3.80;;;11.30;99.90;;;;;;6173348;23;20199;-92
2022/11/08 04:06:33;;;;;;;15.55;4.07;;;11.20;99.90;;;;;;6171785;23;20063;-94
2022/11/08 04:08:59;;;;;;;8.18;3.80;;;11.20;99.90;;;;;;6172474;23;20012;-93
2022/11/08 04:16:53;;;;;;;9.23;4.65;;;11.20;99.90;;;;;;6195941;23;20471;-92
2022/11/08 04:22:05;;;;;;;11.02;3.60;;;11.20;99.90;;;;;;6195980;23;20479;-94
2022/11/08 04:24:30;;;;;;;9.13;3.92;;;11.00;99.90;;;;;;6172056;23;20016;-93
2022/11/08 04:27:00;;;;;;;8.65;3.55;;;11.10;99.90;;;;;;6171414;23;20032;-94
2022/11/08 04:29:26;;;;;;;9.02;4.03;;;11.10;99.90;;;;;;6173434;23;20021;-92
2022/11/08 04:31:51;;;;;;;13.52;4.63;;;11.10;99.90;;;;;;6170422;23;20030;-92
2022/11/08 04:34:17;;;;;;;16.90;4.45;;;11.00;99.90;;;;;;6172270;23;20017;-94
2022/11/08 04:36:42;;;;;;;11.88;3.65;;;11.00;99.90;;;;;;6172249;23;20270;-93
2022/11/08 04:39:08;;;;;;;10.40;3.63;;;11.00;99.90;;;;;;6172273;23;20013;-93
2022/11/08 04:41:34;;;;;;;13.38;4.15;;;11.00;99.90;;;;;;6172809;23;20024;-93
2022/11/08 04:44:03;;;;;;;9.93;3.60;;;11.00;99.90;;;;;;6172702;23;20027;-93
2022/11/08 04:46:28;;;;;;;15.52;3.70;;;11.20;99.90;;;;;;6170671;23;20256;-91
2022/11/08 04:48:58;;;;;;;10.70;3.92;;;11.10;99.90;;;;;;6172226;23;20120;-92
2022/11/08 04:51:30;;;;;;;10.27;3.72;;;11.00;99.90;;;;;;6173113;23;20020;-93
2022/11/08 04:53:58;;;;;;;11.95;4.30;;;11.10;99.90;;;;;;6172673;23;20070;-92
2022/11/08 04:56:25;;;;;;;10.23;3.85;;;10.90;99.90;;;;;;6171720;23;20017;-92
2022/11/08 04:58:54;;;;;;;11.93;4.07;;;10.90;99.90;;;;;;6173545;23;20401;-93
2022/11/08 05:01:22;;;;;;;8.65;3.60;;;11.00;99.90;;;;;;6171297;22;20079;-93
2022/11/08 05:03:49;;;;;;;11.82;4.10;;;10.90;99.90;;;;;;6171617;22;20020;-92
2022/11/08 05:06:18;;;;;;;12.80;4.20;;;10.90;99.90;;;;;;6172887;23;20076;-92
2022/11/08 05:08:44;;;;;;;9.38;3.53;;;10.90;99.90;;;;;;6198253;23;20032;-92
2022/11/08 05:11:13;;;;;;;13.52;3.95;;;10.90;99.90;;;;;;6171272;23;20028;-93
2022/11/08 05:13:39;;;;;;;10.20;3.75;;;10.90;99.90;;;;;;6172925;23;20442;-93
2022/11/08 05:16:27;;;;;;;13.57;3.58;;;10.80;99.90;;;;;;6170838;23;20020;-91
2022/11/08 05:18:53;;;;;;;10.57;3.55;;;10.90;99.90;;;;;;6172187;23;20020;-92
2022/11/08 05:24:06;;;;;;;12.57;3.45;;;10.80;99.90;;;;;;6199102;23;20051;-93
2022/11/08 05:26:34;;;;;;;8.68;3.47;;;10.80;99.90;;;;;;6173505;23;20020;-92
2022/11/08 05:29:00;;;;;;;15.73;4.13;;;10.70;99.90;;;;;;6173055;23;20073;-92
2022/11/08 05:31:25;;;;;;;9.38;3.67;;;10.80;99.90;;;;;;6172405;23;20016;-93
2022/11/08 05:33:51;;;;;;;12.05;4.03;;;10.80;99.90;;;;;;6172834;23;20108;-92
2022/11/08 05:36:18;;;;;;;9.05;3.72;;;10.60;99.90;;;;;;6172915;23;20222;-92
2022/11/08 05:38:43;;;;;;;9.00;3.30;;;10.80;99.90;;;;;;6174174;23;20012;-93
2022/11/08 05:41:15;;;;;;;10.68;3.70;;;10.70;99.90;;;;;;6173219;23;20105;-89
2022/11/08 05:43:41;;;;;;;8.35;3.17;;;10.70;99.90;;;;;;6174050;23;20020;-93
2022/11/08 05:46:10;;;;;;;9.25;3.28;;;10.70;99.90;;;;;;6197898;23;20513;-93
2022/11/08 05:48:35;;;;;;;9.15;3.25;;;10.80;99.90;;;;;;6173554;23;20013;-92
2022/11/08 05:51:01;;;;;;;8.82;3.30;;;10.70;99.90;;;;;;6172922;23;20544;-92
2022/11/08 05:53:27;;;;;;;7.47;3.65;;;10.70;99.90;;;;;;6173856;23;20023;-92
2022/11/08 05:55:58;;;;;;;10.20;2.95;;;10.60;99.90;;;;;;6199204;23;20012;-93
2022/11/08 05:58:24;;;;;;;10.70;3.60;;;10.70;99.90;;;;;;6174370;23;20594;-93
2022/11/08 06:00:50;;;;;;;9.05;4.25;;;10.60;99.90;;;;;;6173341;23;20016;-92
2022/11/08 06:03:15;;;;;;;8.95;3.95;;;10.70;99.90;;;;;;6173098;23;20333;-93
2022/11/08 06:05:41;;;;;;;12.15;3.70;;;10.70;99.90;;;;;;6173249;23;20464;-92
2022/11/08 06:08:06;;;;;;;7.28;3.50;;;10.70;99.90;;;;;;6173443;23;20111;-92
2022/11/08 06:10:32;;;;;;;16.30;3.15;;;10.70;99.90;;;;;;6174001;23;20005;-93
2022/11/08 06:13:00;;;;;;;8.57;3.28;;;10.60;99.90;;;;;;6173112;23;20021;-93
2022/11/08 06:15:26;;;;;;;6.72;3.03;;;10.60;99.90;;;;;;6198221;23;20024;-94
2022/11/08 06:17:54;;;;;;;9.10;3.58;;;10.50;99.90;;;;;;6196812;23;20016;-92
2022/11/08 06:20:20;;;;;;;7.18;3.30;;;10.60;99.90;;;;;;6172874;23;20083;-92
2022/11/08 06:22:45;;;;;;;6.20;3.15;;;10.50;99.90;;;;;;6172693;23;20300;-94
2022/11/08 06:25:11;;;;;;;8.75;2.92;;;10.70;99.90;;;;;;6174082;23;20550;-92
2022/11/08 06:27:37;;;;;;;8.48;3.13;;;10.60;99.90;;;;;;6172728;23;20518;-93
2022/11/08 06:30:04;;;;;;;7.03;3.00;;;10.60;99.90;;;;;;6174028;23;20020;-92
2022/11/08 06:32:29;;;;;;;9.02;3.03;;;10.60;99.90;;;;;;6170731;23;20423;-92
2022/11/08 06:34:55;;;;;;;5.32;3.10;;;10.50;99.90;;;;;;6198448;23;20044;-94
2022/11/08 06:37:21;;;;;;;6.65;3.00;;;10.50;99.90;;;;;;6172281;23;20380;-92
2022/11/08 06:39:46;;;;;;;9.35;3.10;;;10.60;99.90;;;;;;6173713;23;20008;-91
2022/11/08 06:42:13;;;;;;;6.93;2.90;;;10.60;99.90;;;;;;6173530;23;20025;-92
2022/11/08 06:44:41;;;;;;;8.82;3.22;;;10.60;99.90;;;;;;6173293;23;20063;-94
2022/11/08 06:47:07;;;;;;;8.50;3.33;;;10.60;99.90;;;;;;6171624;23;20024;-93
2022/11/08 06:49:32;;;;;;;9.15;3.03;;;10.60;99.90;;;;;;6172695;23;20347;-93
2022/11/08 06:51:58;;;;;;;9.63;3.28;;;10.60;99.90;;;;;;6172235;23;20077;-92
2022/11/08 06:54:24;;;;;;;7.05;3.10;;;10.60;99.90;;;;;;6172584;23;20416;-93
2022/11/08 06:56:50;;;;;;;7.55;3.13;;;10.70;99.90;;;;;;6172580;23;20061;-92
2022/11/08 06:59:15;;;;;;;10.38;3.15;;;10.70;99.90;;;;;;6174016;23;20020;-93
2022/11/08 07:01:41;;;;;;;6.40;2.80;;;10.70;99.90;;;;;;6171498;23;20021;-92
2022/11/08 07:04:07;;;;;;;6.80;2.88;;;10.70;99.90;;;;;;6172043;23;20017;-94
2022/11/08 07:06:32;;;;;;;12.43;3.85;;;10.70;99.90;;;;;;6196382;23;20029;-93
2022/11/08 07:08:58;;;;;;;6.65;2.72;;;10.70;99.90;;;;;;6171784;23;20104;-94
2022/11/08 07:11:24;;;;;;;7.40;2.70;;;10.70;99.90;;;;;;6171832;23;20256;-94
2022/11/08 07:13:49;;;;;;;8.02;2.90;;;10.70;99.90;;;;;;6173092;23;20016;-93
2022/11/08 07:16:15;;;;;;;8.45;3.03;;;10.70;99.90;;;;;;6171948;23;20048;-92
2022/11/08 07:18:41;;;;;;;7.55;3.00;;;10.70;99.90;;;;;;6172377;23;20341;-93
2022/11/08 07:21:06;;;;;;;9.30;3.45;;;10.80;99.90;;;;;;6197200;23;20342;-94
2022/11/08 07:23:32;;;;;;;9.82;3.75;;;10.80;99.90;;;;;;6171931;23;20119;-92
2022/11/08 07:26:07;;;;;;;7.68;3.10;;;10.80;99.90;;;;;;6173051;23;20013;-92
2022/11/08 07:28:33;;;;;;;;;;;10.80;99.90;;;;;;6173455;23;20617;-94
2022/11/08 07:31:01;;;;;;;8.65;3.20;;;10.80;99.90;;;;;;6172686;23;20047;-95
2022/11/08 07:33:27;;;;;;;8.27;3.25;;;10.80;99.90;;;;;;6172255;23;20099;-93
2022/11/08 07:35:54;;;;;;;6.07;3.10;;;10.90;99.90;;;;;;6172179;23;20046;-94
2022/11/08 07:38:20;;;;;;;6.70;3.20;;;10.90;99.90;;;;;;6171191;23;20028;-92
2022/11/08 07:40:46;;;;;;;7.10;3.42;;;11.00;99.90;;;;;;6171981;22;20093;-92
2022/11/08 07:43:15;;;;;;;7.28;2.90;;;11.00;99.90;;;;;;6173470;23;20449;-93
2022/11/08 07:45:41;;;;;;;7.18;2.83;;;11.10;99.90;;;;;;6172673;23;20020;-92
2022/11/08 07:48:10;;;;;;;9.95;3.22;;;11.20;99.90;;;;;;6171034;23;20586;-93
2022/11/08 07:50:36;;;;;;;8.63;2.78;;;11.30;99.90;;;;;;6174138;22;20016;-93
2022/11/08 07:53:01;;;;;;;7.18;2.75;;;11.30;99.90;;;;;;6171478;23;20027;-93
2022/11/08 07:55:27;;;;;;;7.25;2.88;;;11.30;99.90;;;;;;6149035;23;20021;-94
2022/11/08 07:58:00;;;;;;;6.05;2.92;;;11.40;99.90;;;;;;6148012;23;20012;-92
2022/11/08 08:00:25;;;;;;;7.95;2.45;;;11.50;99.90;;;;;;6147645;23;20023;-94
2022/11/08 08:02:57;;;;;;;6.30;2.97;;;11.50;99.90;;;;;;6144714;23;20017;-93
2022/11/08 08:05:22;;;;;;;5.53;2.42;;;11.60;99.90;;;;;;6147596;23;20391;-94
2022/11/08 08:07:48;;;;;;;8.55;2.88;;;11.70;99.90;;;;;;6146135;23;20340;-92
2022/11/08 08:10:14;;;;;;;8.27;2.97;;;11.70;99.90;;;;;;6148301;23;20012;-92
2022/11/08 08:12:39;;;;;;;5.68;2.65;;;11.80;99.90;;;;;;6146973;23;20013;-94
2022/11/08 08:15:05;;;;;;;7.15;2.60;;;11.80;99.90;;;;;;6148140;23;20024;-93
2022/11/08 08:17:31;;;;;;;6.47;2.42;;;11.90;99.90;;;;;;6145323;22;20017;-93
2022/11/08 08:19:57;;;;;;;5.30;2.47;;;11.80;99.90;;;;;;6147661;23;20015;-93
2022/11/08 08:22:22;;;;;;;5.40;2.40;;;11.90;99.90;;;;;;6148091;23;20016;-94
2022/11/08 08:24:51;;;;;;;3.70;2.28;;;11.90;99.90;;;;;;6148467;23;20020;-93
2022/11/08 08:27:16;;;;;;;7.95;2.60;;;11.90;99.90;;;;;;6147100;23;20021;-93
2022/11/08 08:29:42;;;;;;;6.22;2.20;;;11.90;99.90;;;;;;6172520;23;20013;-92
2022/11/08 08:32:08;;;;;;;4.38;2.50;;;12.00;99.90;;;;;;6146633;23;20501;-93
2022/11/08 08:34:33;;;;;;;5.55;2.42;;;12.00;99.90;;;;;;6148865;23;20170;-93
2022/11/08 08:36:59;;;;;;;4.85;2.40;;;12.00;99.90;;;;;;6147421;23;20072;-94
2022/11/08 08:39:25;;;;;;;6.20;2.50;;;12.10;99.90;;;;;;6149310;22;20043;-94
2022/11/08 08:41:50;;;;;;;5.03;2.40;;;12.20;99.90;;;;;;6146857;23;20008;-93
2022/11/08 08:44:19;;;;;;;6.95;2.58;;;12.30;99.90;;;;;;6148080;23;20021;-93
2022/11/08 08:46:44;;;;;;;7.55;3.03;;;12.40;99.90;;;;;;6146132;23;20052;-94
2022/11/08 08:49:10;;;;;;;4.60;2.13;;;12.40;99.90;;;;;;6147627;23;20017;-93
2022/11/08 08:51:36;;;;;;;6.28;2.50;;;12.50;99.90;;;;;;6147408;23;20031;-93
2022/11/08 08:54:01;;;;;;;5.07;2.40;;;12.50;99.90;;;;;;6158660;23;20040;-93
2022/11/08 08:56:27;;;;;;;4.10;2.05;;;12.50;99.90;;;;;;6173657;23;20105;-93
2022/11/08 08:58:52;;;;;;;6.20;2.03;;;12.60;99.90;;;;;;6175167;23;20013;-94
2022/11/08 09:01:18;;;;;;;9.80;2.53;;;12.60;99.90;;;;;;6175068;23;20017;-93
2022/11/08 09:03:47;;;;;;;3.45;2.05;;;12.70;99.90;;;;;;6173707;23;20024;-93
2022/11/08 09:06:12;;;;;;;6.55;2.75;;;12.80;99.90;;;;;;6175129;23;20501;-94
2022/11/08 09:08:38;;;;;;;3.97;2.30;;;12.90;99.90;;;;;;6175433;23;20116;-93
2022/11/08 09:11:04;;;;;;;5.38;2.33;;;12.90;99.90;;;;;;6200549;23;20422;-94
2022/11/08 09:13:30;;;;;;;6.25;2.63;;;13.00;99.90;;;;;;6175823;23;20056;-94
2022/11/08 09:15:56;;;;;;;5.68;2.40;;;13.00;99.90;;;;;;6175185;23;20048;-93
2022/11/08 09:18:22;;;;;;;7.80;2.67;;;13.10;99.90;;;;;;6173921;23;20465;-93
2022/11/08 09:20:48;;;;;;;4.60;2.33;;;13.10;99.90;;;;;;6175036;23;20043;-93
2022/11/08 09:23:18;;;;;;;5.88;2.33;;;13.20;99.90;;;;;;6175595;23;20024;-93
2022/11/08 09:25:43;;;;;;;5.18;2.22;;;13.30;99.90;;;;;;6175507;23;20020;-94
2022/11/08 09:28:09;;;;;;;4.88;2.47;;;13.30;99.90;;;;;;6174330;23;20021;-93
2022/11/08 09:30:35;;;;;;;5.68;2.55;;;13.40;99.90;;;;;;6175782;23;20036;-93
2022/11/08 09:33:00;;;;;;;5.15;2.40;;;13.40;99.90;;;;;;6173125;23;20056;-94
2022/11/08 09:35:27;;;;;;;6.63;2.60;;;13.40;99.90;;;;;;6174526;23;20009;-93
2022/11/08 09:37:55;;;;;;;4.05;2.20;;;13.60;99.90;;;;;;6174572;23;20019;-93
2022/11/08 09:40:36;;;;;;;4.55;2.35;;;13.60;99.90;;;;;;6175283;23;20059;-93
2022/11/08 09:43:28;;;;;;;5.28;2.47;;;13.60;99.90;;;;;;6174719;23;20505;-92
2022/11/08 09:45:56;;;;;;;4.55;2.45;;;13.70;99.90;;;;;;6174711;23;20027;-92
2022/11/08 09:48:39;;;;;;;4.68;2.10;;;13.70;99.90;;;;;;6174163;23;20017;-92
2022/11/08 09:51:10;;;;;;;3.42;2.17;;;13.80;99.90;;;;;;6175385;23;20070;-94
2022/11/08 09:53:48;;;;;;;4.97;2.10;;;13.80;99.90;;;;;;6198948;23;20020;-93
2022/11/08 09:56:29;;;;;;;5.10;2.38;;;13.90;99.90;;;;;;6174618;23;20027;-93
2022/11/08 09:58:57;;;;;;;3.90;1.95;;;14.00;99.90;;;;;;6174574;23;20464;-93
2022/11/08 10:01:22;;;;;;;6.63;2.20;;;14.00;99.90;;;;;;6173930;23;20035;-94
2022/11/08 10:03:52;;;;;;;3.50;2.15;;;14.00;99.90;;;;;;6173833;23;20020;-93
2022/11/08 10:06:24;;;;;;;4.88;2.50;;;14.00;99.90;;;;;;6175322;23;20571;-93
2022/11/08 10:09:14;;;;;;;4.25;2.20;;;14.00;99.90;;;;;;6303412;22;20365;-93
2022/11/08 10:12:01;;;;;;;6.85;2.22;;;14.10;99.90;;;;;;6173220;23;20025;-93
2022/11/08 10:14:37;;;;;;;3.85;2.10;;;14.10;99.90;;;;;;6173073;22;20012;-94
2022/11/08 10:17:32;;;;;;;4.63;2.13;;;14.10;99.90;;;;;;6170951;23;20013;-94
2022/11/08 10:20:13;;;;;;;3.95;2.20;;;14.10;99.90;;;;;;6172810;23;20346;-94
2022/11/08 10:22:46;;;;;;;4.47;2.35;;;14.20;99.90;;;;;;6172831;23;20039;-92
2022/11/08 10:25:14;;;;;;;4.43;2.08;;;14.20;99.90;;;;;;6305181;22;20052;-93
2022/11/08 10:27:42;;;;;;;4.70;2.30;;;14.20;99.90;;;;;;6303753;22;20013;-94
2022/11/08 10:30:22;;;;;;;3.85;2.20;;;14.20;99.90;;;;;;6172915;23;20116;-93
2022/11/08 10:32:51;;;;;;;3.30;2.50;;;14.20;99.90;;;;;;6170923;23;20158;-94
2022/11/08 10:35:24;;;;;;;4.05;2.60;;;14.20;99.90;;;;;;6198478;23;20012;-94
2022/11/08 10:37:53;;;;;;;3.80;2.30;;;14.30;99.90;;;;;;6173584;23;20016;-93
2022/11/08 10:40:41;;;;;;;4.80;2.35;;;14.20;99.90;;;;;;6174209;23;20445;-93
2022/11/08 10:43:14;;;;;;;5.22;2.22;;;14.10;99.90;;;;;;6171577;23;20173;-93
2022/11/08 10:45:39;;;;;;;7.88;2.47;;;14.10;99.90;;;;;;6172740;23;20021;-94
2022/11/08 10:48:05;;;;;;;5.13;2.58;;;14.00;99.90;;;;;;6169235;23;20061;-92
2022/11/08 10:50:49;;;;;;;4.35;2.40;;;14.00;99.90;;;;;;6197719;23;20023;-94
2022/11/08 10:53:27;;;;;;;5.28;2.17;;;14.00;99.90;;;;;;6170637;23;20032;-94
2022/11/08 10:56:01;;;;;;;4.10;2.10;;;13.90;99.90;;;;;;6172077;23;20021;-94
2022/11/08 10:58:36;;;;;;;3.83;2.10;;;13.90;99.90;;;;;;6172022;23;20016;-94
2022/11/08 11:01:17;;;;;;;5.60;2.55;;;13.90;99.90;;;;;;6196572;23;20005;-93
2022/11/08 11:03:43;;;;;;;5.10;2.30;;;13.90;99.90;;;;;;6302895;22;20044;-94
2022/11/08 11:06:28;;;;;;;4.05;2.70;;;13.80;99.90;;;;;;6173646;23;20621;-92
2022/11/08 11:09:21;;;;;;;4.53;2.42;;;13.90;99.90;;;;;;6172723;23;20017;-92
2022/11/08 11:11:56;;;;;;;4.90;3.08;;;13.90;99.90;;;;;;6171486;23;20031;-93
2022/11/08 11:14:22;;;;;;;2.55;1.90;;;14.00;99.90;;;;;;6172950;22;20017;-92
2022/11/08 11:16:52;;;;;;;2.78;1.80;;;14.00;99.90;;;;;;6195126;23;20028;-93
2022/11/08 11:19:18;;;;;;;4.05;2.35;;;14.00;99.90;;;;;;6197460;23;20013;-93
2022/11/08 11:21:47;;;;;;;6.28;2.15;;;14.10;99.90;;;;;;6171048;23;20189;-93
2022/11/08 11:24:18;;;;;;;3.47;2.00;;;14.10;99.90;;;;;;6172269;23;20021;-93
2022/11/08 11:26:59;;;;;;;5.25;2.40;;;14.20;99.90;;;;;;6172583;23;20357;-94
2022/11/08 11:29:31;;;;;;;4.20;2.05;;;14.30;99.90;;;;;;6173365;23;20017;-93
2022/11/08 11:31:57;;;;;;;4.15;2.08;;;14.40;56.60;;;;;;6171018;23;20307;-93
2022/11/08 11:34:42;;;;;;;3.83;1.80;;;14.40;99.90;;;;;;6172072;23;20024;-93
2022/11/08 11:37:08;;;;;;;7.10;2.08;;;14.40;1.00;;;;;;6171095;23;20013;-93
2022/11/08 11:39:39;;;;;;;3.92;1.90;;;14.60;1.00;;;;;;6304151;22;20026;-94
2022/11/08 11:42:05;;;;;;;4.93;2.05;;;14.60;1.00;;;;;;6303977;22;20016;-92
2022/11/08 11:44:37;;;;;;;5.70;2.00;;;14.60;1.00;;;;;;6303707;22;20059;-93
2022/11/08 11:47:20;;;;;;;6.95;2.35;;;14.60;1.00;;;;;;6302062;22;20052;-93
2022/11/08 11:49:47;;;;;;;4.22;2.00;;;14.70;99.90;;;;;;6172522;23;20023;-92
2022/11/08 11:52:18;;;;;;;3.85;2.30;;;14.80;1.00;;;;;;6171841;23;20013;-93
2022/11/08 11:54:46;;;;;;;4.95;1.92;;;14.80;99.90;;;;;;6171993;23;20016;-93
2022/11/08 11:57:21;;;;;;;3.85;1.90;;;14.80;99.90;;;;;;6172453;23;20110;-93
2022/11/08 12:00:05;;;;;;;3.00;1.73;;;14.90;99.90;;;;;;6304481;22;20393;-92
2022/11/08 12:03:00;;;;;;;2.70;2.00;;;14.80;99.90;;;;;;6170332;22;20046;-93
2022/11/08 12:05:27;;;;;;;5.00;1.95;;;14.90;99.90;;;;;;6173856;22;20016;-93
2022/11/08 12:08:17;;;;;;;3.55;2.08;;;15.00;99.90;;;;;;6171990;23;20055;-93
2022/11/08 12:10:58;;;;;;;4.10;2.03;;;15.00;99.90;;;;;;6172793;23;20021;-94
2022/11/08 12:13:28;;;;;;;3.90;2.10;;;15.10;1.00;;;;;;6303325;22;20461;-94
2022/11/08 12:16:23;;;;;;;3.90;2.08;;;15.20;72.30;;;;;;6303033;22;20012;-94
2022/11/08 12:18:49;;;;;;;5.05;2.00;;;15.20;1.00;;;;;;6173911;23;20024;-92
2022/11/08 12:21:38;;;;;;;4.13;2.25;;;15.20;1.00;;;;;;6303461;22;20012;-93
2022/11/08 12:24:25;;;;;;;3.13;1.65;;;15.20;1.00;;;;;;6196706;23;20197;-93
2022/11/08 12:27:28;;;;;;;4.60;1.63;;;15.10;99.90;;;;;;6172875;23;20063;-93
2022/11/08 12:30:10;;;;;;;4.25;1.98;;;15.20;1.00;;;;;;6172788;22;20045;-93
2022/11/08 12:33:08;;;;;;;3.45;1.98;;;15.20;1.00;;;;;;6169621;23;20096;-93
2022/11/08 12:35:37;;;;;;;3.67;2.00;;;15.10;99.90;;;;;;6172979;22;20080;-93
2022/11/08 12:38:28;;;;;;;3.63;2.00;;;15.10;99.90;;;;;;6172144;23;20288;-94
2022/11/08 12:41:05;;;;;;;4.35;2.40;;;15.10;1.00;;;;;;6172362;23;20048;-94
2022/11/08 12:43:37;;;;;;;5.32;2.03;;;15.10;1.00;;;;;;6302869;22;20138;-93
2022/11/08 12:46:17;;;;;;;5.47;2.10;;;15.20;99.90;;;;;;6302827;22;20080;-93
2022/11/08 12:49:00;;;;;;;6.72;2.00;;;15.20;99.90;;;;;;6171346;23;20096;-94
2022/11/08 12:52:03;;;;;;;4.15;2.00;;;15.20;99.90;;;;;;6171593;23;20055;-94
2022/11/08 12:54:47;;;;;;;4.90;2.35;;;15.20;99.90;;;;;;6171416;23;20118;-93
2022/11/08 12:57:15;;;;;;;4.10;1.80;;;15.30;99.90;;;;;;6173096;23;20442;-92
2022/11/08 12:59:50;;;;;;;3.53;2.13;;;15.40;99.90;;;;;;6171986;22;20314;-93
2022/11/08 13:02:26;;;;;;;2.93;2.03;;;15.50;99.90;;;;;;6170673;23;20549;-93
2022/11/08 13:05:18;;;;;;;5.22;1.90;;;15.60;99.90;;;;;;6171720;23;20627;-94
2022/11/08 13:07:47;;;;;;;4.00;1.92;;;15.60;99.90;;;;;;6172289;23;20021;-93
2022/11/08 13:10:58;;;;;;;2.63;1.55;;;15.60;1.00;;;;;;6173102;23;20017;-93
2022/11/08 13:13:31;;;;;;;9.65;2.25;;;15.50;99.90;;;;;;6171642;23;20021;-94
2022/11/08 13:16:15;;;;;;;4.68;2.10;;;15.50;99.90;;;;;;6196944;23;20016;-92
2022/11/08 13:18:52;;;;;;;6.05;2.42;;;15.40;99.90;;;;;;6170840;23;20008;-94